Time;durP1;ratioP1;P1;durP2;ratioP2;P2;SDS_P1;SDS_P2;PMS_P1;PMS_P2;Temp;Humidity;BMP_temperature;BMP_pressure;BME280_temperature;BME280_humidity;BME280_pressure;Samples;Min_cycle;Max_cycle;Signal;HPM_P1;HPM_P2
2022/05/29 00:00:45;;;;;;;2.60;2.40;;;15.40;99.90;;;;;;5073277;28;20656;-89
2022/05/29 00:03:12;;;;;;;3.00;2.70;;;15.40;99.90;;;;;;5076498;28;20667;-88
2022/05/29 00:05:40;;;;;;;3.63;2.53;;;15.50;99.90;;;;;;5074334;28;20620;-88
2022/05/29 00:08:13;;;;;;;2.70;2.50;;;15.40;99.90;;;;;;5072331;28;20632;-88
2022/05/29 00:10:42;;;;;;;2.83;2.53;;;15.50;99.90;;;;;;5073965;28;20799;-88
2022/05/29 00:13:11;;;;;;;4.20;3.03;;;15.50;99.90;;;;;;5071428;28;20707;-88
2022/05/29 00:15:38;;;;;;;3.03;2.40;;;15.50;99.90;;;;;;5074159;28;20637;-88
2022/05/29 00:18:06;;;;;;;2.80;2.40;;;15.50;99.90;;;;;;5070744;28;20806;-88
2022/05/29 00:20:33;;;;;;;3.37;2.47;;;15.60;99.90;;;;;;5072583;28;20660;-89
2022/05/29 00:23:00;;;;;;;3.07;2.47;;;15.50;99.90;;;;;;5073610;28;21205;-88
2022/05/29 00:25:28;;;;;;;4.73;2.93;;;15.50;99.90;;;;;;5074261;28;20656;-88
2022/05/29 00:27:55;;;;;;;4.53;3.13;;;15.50;99.90;;;;;;5074354;28;20684;-88
2022/05/29 00:30:22;;;;;;;5.60;3.73;;;15.50;99.90;;;;;;5072930;28;20656;-89
2022/05/29 00:32:49;;;;;;;4.30;3.10;;;15.50;99.90;;;;;;5082430;28;20626;-89
2022/05/29 00:35:15;;;;;;;3.80;2.53;;;15.40;99.90;;;;;;5083053;28;20621;-88
2022/05/29 00:37:43;;;;;;;5.03;3.80;;;15.30;99.90;;;;;;5089993;28;21202;-89
2022/05/29 00:40:24;;;;;;;3.33;2.50;;;15.10;99.90;;;;;;5077892;28;20655;-88
2022/05/29 00:42:52;;;;;;;3.93;3.00;;;15.00;99.90;;;;;;5081962;28;20667;-88
2022/05/29 00:45:21;;;;;;;5.03;3.60;;;15.10;99.90;;;;;;5083437;28;20625;-88
2022/05/29 00:47:49;;;;;;;3.60;2.97;;;15.10;99.90;;;;;;5081363;28;20629;-88
2022/05/29 00:50:19;;;;;;;3.47;3.17;;;15.20;99.90;;;;;;5062470;28;20653;-88
2022/05/29 00:52:46;;;;;;;3.03;2.30;;;15.10;99.90;;;;;;5076392;28;20616;-88
2022/05/29 00:55:17;;;;;;;3.40;2.40;;;15.20;99.90;;;;;;5074815;28;20620;-88
2022/05/29 00:57:46;;;;;;;3.07;2.80;;;15.20;99.90;;;;;;5071919;28;20629;-88
2022/05/29 01:00:18;;;;;;;3.33;3.03;;;15.30;99.90;;;;;;5072469;28;21389;-88
2022/05/29 01:02:46;;;;;;;4.77;2.73;;;15.20;99.90;;;;;;5075478;28;21191;-88
2022/05/29 01:05:15;;;;;;;3.20;2.80;;;15.20;99.90;;;;;;5070872;28;20625;-88
2022/05/29 01:07:44;;;;;;;8.80;3.00;;;15.20;99.90;;;;;;5069011;28;20642;-88
2022/05/29 01:10:11;;;;;;;3.17;2.83;;;15.20;99.90;;;;;;5073872;28;20656;-88
2022/05/29 01:12:45;;;;;;;3.57;3.17;;;15.20;99.90;;;;;;5072822;28;20624;-88
2022/05/29 01:15:24;;;;;;;2.70;2.50;;;15.30;99.90;;;;;;5078560;28;20616;-88
2022/05/29 01:18:00;;;;;;;6.27;3.10;;;15.10;99.90;;;;;;5066480;28;20631;-88
2022/05/29 01:20:52;;;;;;;2.80;2.50;;;15.10;99.90;;;;;;5075897;28;21061;-88
2022/05/29 01:23:35;;;;;;;2.70;2.40;;;15.10;99.90;;;;;;5065154;28;20667;-89
2022/05/29 01:26:24;;;;;;;4.93;3.80;;;14.90;99.90;;;;;;5078138;28;20636;-88
2022/05/29 01:28:54;;;;;;;2.93;2.67;;;15.00;99.90;;;;;;5071713;28;20636;-88
2022/05/29 01:31:41;;;;;;;4.37;2.80;;;14.90;99.90;;;;;;5079733;28;20992;-88
2022/05/29 01:34:24;;;;;;;3.17;2.87;;;14.90;99.90;;;;;;5077316;28;20708;-88
2022/05/29 01:37:01;;;;;;;5.70;2.73;;;14.90;99.90;;;;;;5076948;28;20632;-88
2022/05/29 01:39:33;;;;;;;3.27;2.50;;;14.80;99.90;;;;;;5075204;28;20612;-88
2022/05/29 01:42:08;;;;;;;3.10;2.80;;;14.90;99.90;;;;;;5074259;28;20604;-88
2022/05/29 01:44:42;;;;;;;3.37;2.23;;;14.90;99.90;;;;;;5077358;28;20651;-88
2022/05/29 01:47:15;;;;;;;4.27;2.80;;;15.10;99.90;;;;;;5076479;28;20675;-88
2022/05/29 01:49:46;;;;;;;7.17;3.90;;;15.10;99.90;;;;;;5080377;28;21290;-88
2022/05/29 01:52:17;;;;;;;2.80;2.60;;;15.00;99.90;;;;;;5074527;28;20621;-88
2022/05/29 01:54:48;;;;;;;3.43;2.07;;;15.00;99.90;;;;;;5079408;28;20617;-88
2022/05/29 01:57:20;;;;;;;2.70;2.50;;;15.00;99.90;;;;;;5059439;28;20620;-88
2022/05/29 01:59:52;;;;;;;2.33;2.20;;;15.10;99.90;;;;;;5074406;28;20652;-88
2022/05/29 02:02:23;;;;;;;5.47;3.07;;;15.20;99.90;;;;;;5073935;28;20635;-88
2022/05/29 02:04:55;;;;;;;3.73;3.03;;;15.00;99.90;;;;;;5076035;28;21008;-88
2022/05/29 02:10:21;;;;;;;4.90;3.00;;;14.80;99.90;;;;;;5075691;28;20778;-88
2022/05/29 02:12:55;;;;;;;4.57;2.90;;;15.10;99.90;;;;;;5086336;28;20617;-88
2022/05/29 02:15:29;;;;;;;3.07;2.77;;;15.10;99.90;;;;;;5076570;28;20642;-87
2022/05/29 02:17:59;;;;;;;3.80;3.13;;;15.10;99.90;;;;;;5069635;28;20624;-88
2022/05/29 02:20:31;;;;;;;3.07;2.20;;;15.10;99.90;;;;;;5075402;28;21064;-88
2022/05/29 02:23:04;;;;;;;3.47;3.10;;;15.10;99.90;;;;;;5079280;28;20738;-88
2022/05/29 02:25:31;;;;;;;2.53;2.33;;;15.00;99.90;;;;;;5078702;28;20635;-88
2022/05/29 02:28:01;;;;;;;2.50;2.00;;;15.10;99.90;;;;;;5078897;28;20685;-88
2022/05/29 02:30:39;;;;;;;3.37;2.53;;;15.10;99.90;;;;;;5073583;28;20649;-88
2022/05/29 02:33:13;;;;;;;3.80;3.07;;;15.10;99.90;;;;;;5077426;28;20646;-88
2022/05/29 02:35:47;;;;;;;2.87;2.20;;;15.10;99.90;;;;;;5075941;28;20623;-88
2022/05/29 02:38:20;;;;;;;3.17;2.37;;;15.10;99.90;;;;;;5069693;28;21178;-88
2022/05/29 02:40:57;;;;;;;2.40;2.20;;;15.20;99.90;;;;;;5072928;28;20644;-88
2022/05/29 02:43:36;;;;;;;4.33;2.20;;;15.20;99.90;;;;;;5071602;28;21233;-88
2022/05/29 02:46:10;;;;;;;2.40;2.20;;;15.30;99.90;;;;;;5077921;28;20607;-88
2022/05/29 02:48:44;;;;;;;4.30;2.57;;;15.20;99.90;;;;;;5074278;28;20631;-88
2022/05/29 02:51:20;;;;;;;4.70;3.20;;;15.20;99.90;;;;;;5076411;28;20652;-89
2022/05/29 02:53:47;;;;;;;3.40;3.07;;;15.20;99.90;;;;;;5073640;28;21325;-87
2022/05/29 02:56:15;;;;;;;3.40;2.50;;;15.20;99.90;;;;;;5076315;28;20644;-88
2022/05/29 02:58:46;;;;;;;2.90;1.90;;;15.20;99.90;;;;;;5076677;28;20694;-88
2022/05/29 03:01:36;;;;;;;2.37;2.13;;;15.20;99.90;;;;;;5072442;28;20655;-88
2022/05/29 03:04:22;;;;;;;3.03;2.27;;;15.10;99.90;;;;;;5075342;28;20671;-89
2022/05/29 03:06:53;;;;;;;2.30;2.10;;;15.10;99.90;;;;;;5074332;28;20629;-88
2022/05/29 03:09:42;;;;;;;2.70;2.50;;;15.10;99.90;;;;;;5073379;28;21230;-88
2022/05/29 03:12:15;;;;;;;3.30;2.33;;;15.10;99.90;;;;;;5072437;28;20631;-88
2022/05/29 03:14:50;;;;;;;2.87;1.90;;;15.00;99.90;;;;;;5074314;28;20616;-88
2022/05/29 03:17:29;;;;;;;3.70;2.37;;;15.00;99.90;;;;;;5077974;28;20573;-88
2022/05/29 03:20:07;;;;;;;2.47;2.27;;;15.00;99.90;;;;;;5077877;28;21275;-88
2022/05/29 03:22:50;;;;;;;4.30;2.33;;;15.00;99.90;;;;;;5074600;28;20643;-88
2022/05/29 03:25:22;;;;;;;3.80;2.10;;;15.00;99.90;;;;;;5071090;28;20652;-88
2022/05/29 03:27:51;;;;;;;2.20;2.00;;;14.90;99.90;;;;;;5077608;28;20627;-88
2022/05/29 03:30:21;;;;;;;4.90;1.83;;;14.90;99.90;;;;;;5077076;28;20682;-88
2022/05/29 03:32:51;;;;;;;2.47;1.50;;;14.80;99.90;;;;;;5072964;28;20636;-88
2022/05/29 03:35:24;;;;;;;2.00;1.53;;;15.00;99.90;;;;;;5073290;28;20625;-88
2022/05/29 03:37:51;;;;;;;2.30;1.60;;;15.00;99.90;;;;;;5078790;28;20612;-88
2022/05/29 03:40:19;;;;;;;3.83;1.47;;;15.00;99.90;;;;;;5075534;28;20656;-88
2022/05/29 03:42:46;;;;;;;2.30;1.40;;;15.00;99.90;;;;;;5077207;28;20620;-89
2022/05/29 03:45:14;;;;;;;1.50;1.40;;;14.80;99.90;;;;;;5076564;28;20664;-88
2022/05/29 03:47:41;;;;;;;1.97;1.53;;;14.90;99.90;;;;;;5073629;28;20634;-88
2022/05/29 03:50:12;;;;;;;3.73;1.40;;;15.00;99.90;;;;;;5077336;28;20768;-87
2022/05/29 03:52:39;;;;;;;2.37;1.63;;;15.00;99.90;;;;;;5076023;28;20980;-88
2022/05/29 03:55:08;;;;;;;2.37;1.80;;;15.10;99.90;;;;;;5072198;28;21301;-88
2022/05/29 03:57:35;;;;;;;2.70;1.77;;;15.10;99.90;;;;;;5074511;28;21178;-88
2022/05/29 04:00:02;;;;;;;2.23;1.40;;;15.20;99.90;;;;;;5070393;28;20739;-88
2022/05/29 04:02:29;;;;;;;1.63;1.53;;;15.20;99.90;;;;;;5072500;28;20628;-88
2022/05/29 04:04:56;;;;;;;1.90;1.77;;;15.30;99.90;;;;;;5074376;28;20679;-88
2022/05/29 04:12:03;;;;;;;4.67;1.77;;;15.50;99.90;;;;;;5068548;28;20640;-88
2022/05/29 04:12:57;;;;;;;2.20;1.70;;;15.50;99.90;;;;;;5075168;28;20613;-88
2022/05/29 04:15:25;;;;;;;1.33;1.23;;;15.30;99.90;;;;;;5073547;28;20636;-88
2022/05/29 04:17:51;;;;;;;1.50;1.40;;;15.30;99.90;;;;;;5074687;28;20692;-88
2022/05/29 04:20:18;;;;;;;1.43;1.33;;;15.40;99.90;;;;;;5071029;28;20648;-89
2022/05/29 04:22:46;;;;;;;3.87;1.37;;;15.40;99.90;;;;;;5074439;28;20608;-89
2022/05/29 04:25:13;;;;;;;2.33;1.20;;;15.50;99.90;;;;;;5077584;28;20664;-88
2022/05/29 04:27:40;;;;;;;1.70;1.47;;;15.40;99.90;;;;;;5075838;28;20632;-88
2022/05/29 04:30:08;;;;;;;2.60;1.50;;;15.50;99.90;;;;;;5069949;28;20656;-88
2022/05/29 04:35:19;;;;;;;1.63;1.13;;;15.60;99.90;;;;;;5073992;28;20635;-88
2022/05/29 04:37:49;;;;;;;1.67;1.53;;;15.90;99.90;;;;;;5080295;28;20631;-88
2022/05/29 04:40:16;;;;;;;1.50;1.40;;;15.90;99.90;;;;;;5069684;28;20660;-88
2022/05/29 04:42:43;;;;;;;2.10;1.33;;;15.90;99.90;;;;;;5074334;28;20640;-88
2022/05/29 04:45:10;;;;;;;1.63;1.30;;;15.80;99.90;;;;;;5077587;28;20711;-88
2022/05/29 04:47:37;;;;;;;4.40;2.27;;;15.70;99.90;;;;;;5075348;28;20644;-88
2022/05/29 04:50:05;;;;;;;2.43;1.50;;;15.60;99.90;;;;;;5069612;28;20657;-88
2022/05/29 04:52:31;;;;;;;1.90;1.20;;;15.70;99.90;;;;;;5079226;28;20753;-88
2022/05/29 04:55:00;;;;;;;1.60;1.20;;;15.70;99.90;;;;;;5076320;28;20615;-88
2022/05/29 04:57:27;;;;;;;1.30;1.20;;;15.80;99.90;;;;;;5073111;28;20644;-88
2022/05/29 04:59:55;;;;;;;2.67;1.60;;;15.90;99.90;;;;;;5075780;28;20657;-89
2022/05/29 05:02:22;;;;;;;4.33;1.63;;;15.90;99.90;;;;;;5077929;28;20811;-88
2022/05/29 05:04:48;;;;;;;2.77;1.50;;;15.90;99.90;;;;;;5076926;28;20645;-88
2022/05/29 05:07:16;;;;;;;1.30;1.20;;;15.80;99.90;;;;;;5078155;28;20652;-87
2022/05/29 05:09:43;;;;;;;6.23;1.40;;;15.70;99.90;;;;;;5076636;28;21365;-88
2022/05/29 05:12:12;;;;;;;4.70;1.77;;;15.70;99.90;;;;;;5071239;28;20629;-89
2022/05/29 05:14:39;;;;;;;1.20;1.10;;;15.60;96.90;;;;;;5071209;28;20628;-88
2022/05/29 05:17:06;;;;;;;2.00;1.03;;;15.50;99.90;;;;;;5076423;28;20635;-88
2022/05/29 05:19:32;;;;;;;2.17;1.50;;;15.20;99.50;;;;;;5074582;28;20823;-88
2022/05/29 05:22:01;;;;;;;4.37;2.00;;;15.20;99.90;;;;;;5076024;28;21162;-88
2022/05/29 05:24:28;;;;;;;1.80;1.17;;;15.20;99.90;;;;;;5079464;28;21061;-88
2022/05/29 05:26:58;;;;;;;4.23;1.33;;;15.00;99.90;;;;;;5075010;28;20640;-90
2022/05/29 05:29:26;;;;;;;1.63;1.37;;;15.00;99.90;;;;;;5072218;28;20625;-88
2022/05/29 05:31:53;;;;;;;1.67;1.40;;;14.60;99.90;;;;;;5073679;28;20619;-88
2022/05/29 05:34:20;;;;;;;2.90;1.50;;;14.40;99.90;;;;;;5073306;28;20752;-88
2022/05/29 05:36:47;;;;;;;3.53;1.67;;;14.40;99.90;;;;;;5071163;28;20617;-87
2022/05/29 05:39:14;;;;;;;3.40;1.60;;;14.40;99.90;;;;;;5072858;28;21002;-88
2022/05/29 05:41:41;;;;;;;2.47;1.27;;;14.40;99.90;;;;;;5075266;28;20624;-88
2022/05/29 05:44:07;;;;;;;2.40;1.37;;;14.50;99.90;;;;;;5076177;28;20676;-88
2022/05/29 05:46:35;;;;;;;3.63;1.70;;;14.50;99.90;;;;;;5074102;28;20674;-88
2022/05/29 05:49:02;;;;;;;1.43;1.30;;;14.50;99.90;;;;;;5076743;28;20641;-87
2022/05/29 05:51:29;;;;;;;2.30;1.10;;;14.50;99.90;;;;;;5075995;28;20661;-88
2022/05/29 05:53:56;;;;;;;1.77;1.03;;;14.80;99.90;;;;;;5070506;28;20729;-88
2022/05/29 05:56:23;;;;;;;2.30;1.00;;;14.80;99.90;;;;;;5075498;28;20641;-88
2022/05/29 05:58:49;;;;;;;1.53;1.00;;;14.90;99.90;;;;;;5069751;28;20629;-87
2022/05/29 06:01:18;;;;;;;3.30;1.50;;;14.90;99.90;;;;;;5068214;28;21250;-87
2022/05/29 06:03:47;;;;;;;3.50;2.00;;;15.00;99.90;;;;;;5072050;28;20613;-87
2022/05/29 06:06:13;;;;;;;5.43;1.67;;;14.90;99.90;;;;;;5063281;28;20629;-87
2022/05/29 06:08:40;;;;;;;3.83;1.57;;;14.80;99.90;;;;;;5071340;28;20731;-87
2022/05/29 06:11:07;;;;;;;3.03;1.87;;;14.60;99.90;;;;;;5075401;28;20677;-86
2022/05/29 06:13:35;;;;;;;2.53;1.80;;;14.50;99.90;;;;;;5073742;28;20635;-87
2022/05/29 06:16:02;;;;;;;2.20;1.80;;;14.50;99.90;;;;;;5070607;28;20633;-86
2022/05/29 06:18:30;;;;;;;3.57;1.90;;;14.60;99.90;;;;;;5076526;28;20643;-86
2022/05/29 06:21:04;;;;;;;2.43;1.70;;;14.50;99.90;;;;;;5073890;28;20664;-86
2022/05/29 06:23:31;;;;;;;3.93;2.10;;;14.40;99.90;;;;;;5078231;28;20637;-86
2022/05/29 06:26:01;;;;;;;4.00;2.17;;;14.50;99.90;;;;;;5079221;28;20691;-87
2022/05/29 06:28:28;;;;;;;3.10;2.10;;;14.60;99.90;;;;;;5080385;28;20627;-86
2022/05/29 06:30:55;;;;;;;2.63;1.90;;;14.60;99.90;;;;;;5076358;28;20648;-89
2022/05/29 06:33:22;;;;;;;3.00;2.00;;;14.80;99.90;;;;;;5073159;28;21006;-87
2022/05/29 06:35:49;;;;;;;3.30;2.20;;;14.70;99.90;;;;;;5074910;28;20608;-87
2022/05/29 06:38:17;;;;;;;5.57;2.50;;;14.80;99.90;;;;;;5072322;28;20633;-87
2022/05/29 06:40:49;;;;;;;2.47;2.10;;;14.80;99.90;;;;;;5077250;28;20708;-88
2022/05/29 06:43:16;;;;;;;2.40;1.80;;;14.90;99.90;;;;;;5078480;28;20624;-87
2022/05/29 06:45:43;;;;;;;4.00;1.87;;;14.90;99.90;;;;;;5071501;28;20675;-86
2022/05/29 06:48:09;;;;;;;2.40;1.67;;;15.10;99.90;;;;;;5074374;28;20636;-87
2022/05/29 06:50:36;;;;;;;2.83;2.07;;;15.20;99.90;;;;;;5074655;28;20648;-87
2022/05/29 06:53:03;;;;;;;2.97;2.30;;;15.20;99.90;;;;;;5078185;28;20628;-87
2022/05/29 06:55:31;;;;;;;2.63;1.90;;;15.20;99.90;;;;;;5081948;28;20631;-87
2022/05/29 06:57:58;;;;;;;6.30;1.80;;;15.20;99.90;;;;;;5077480;28;20625;-88
2022/05/29 07:08:44;;;;;;;2.40;1.97;;;15.30;99.90;;;;;;5080103;28;20568;-87
2022/05/29 07:11:18;;;;;;;2.13;1.20;;;15.60;99.90;;;;;;5076055;28;21185;-87
2022/05/29 07:13:45;;;;;;;1.83;1.33;;;15.90;99.90;;;;;;5057094;28;20679;-87
2022/05/29 07:16:12;;;;;;;2.00;1.60;;;16.10;99.90;;;;;;5075622;28;20644;-87
2022/05/29 07:18:39;;;;;;;2.80;1.40;;;16.00;99.90;;;;;;5077186;28;20632;-87
2022/05/29 07:21:06;;;;;;;1.90;1.13;;;16.10;99.90;;;;;;5073002;28;20687;-87
2022/05/29 07:23:34;;;;;;;2.40;1.43;;;16.20;99.90;;;;;;5077609;28;20629;-87
2022/05/29 07:26:01;;;;;;;2.43;1.50;;;16.20;99.90;;;;;;5077363;28;20664;-87
2022/05/29 07:28:29;;;;;;;2.50;1.27;;;16.30;98.10;;;;;;5074360;28;20629;-87
2022/05/29 07:30:56;;;;;;;2.03;1.37;;;16.30;99.90;;;;;;5073678;28;20671;-87
2022/05/29 07:33:25;;;;;;;1.70;1.60;;;16.60;99.90;;;;;;5071681;28;21215;-87
2022/05/29 07:35:52;;;;;;;4.23;1.73;;;16.80;99.90;;;;;;5072424;28;20711;-87
2022/05/29 07:38:19;;;;;;;3.60;1.80;;;16.80;99.90;;;;;;5077855;28;20636;-87
2022/05/29 07:40:45;;;;;;;3.50;2.17;;;16.80;99.80;;;;;;5073231;28;20652;-87
2022/05/29 07:43:22;;;;;;;2.50;1.67;;;16.90;99.90;;;;;;5076037;28;20628;-87
2022/05/29 07:45:52;;;;;;;3.03;2.27;;;16.90;99.50;;;;;;5079138;28;20657;-87
2022/05/29 07:48:20;;;;;;;2.13;1.70;;;16.80;97.80;;;;;;5078284;28;20628;-87
2022/05/29 07:50:47;;;;;;;2.03;1.47;;;16.80;99.20;;;;;;5083340;28;20661;-87
2022/05/29 07:53:15;;;;;;;1.50;1.40;;;17.00;99.90;;;;;;5070864;28;20631;-87
2022/05/29 07:55:43;;;;;;;1.50;1.37;;;17.10;99.70;;;;;;5077052;28;20689;-87
2022/05/29 07:58:11;;;;;;;1.60;1.33;;;17.20;98.60;;;;;;5075919;28;21013;-87
2022/05/29 08:00:39;;;;;;;1.97;1.47;;;17.20;97.40;;;;;;5076631;28;20664;-87
2022/05/29 08:03:08;;;;;;;2.90;1.20;;;17.40;98.90;;;;;;5068530;28;20613;-87
2022/05/29 08:05:37;;;;;;;2.50;1.43;;;17.60;99.60;;;;;;5071364;28;20664;-88
2022/05/29 08:08:08;;;;;;;1.73;1.47;;;17.60;98.30;;;;;;5070908;28;20647;-87
2022/05/29 08:10:36;;;;;;;3.37;1.97;;;17.80;99.10;;;;;;5074733;28;20648;-88
2022/05/29 08:13:03;;;;;;;1.90;1.00;;;18.00;97.60;;;;;;5078607;28;21002;-88
2022/05/29 08:15:31;;;;;;;3.73;2.00;;;18.20;97.80;;;;;;5084199;28;20651;-88
2022/05/29 08:17:58;;;;;;;2.50;1.30;;;18.20;95.20;;;;;;5095945;28;20635;-88
2022/05/29 08:20:27;;;;;;;2.30;1.43;;;18.20;98.90;;;;;;5083172;28;20653;-88
2022/05/29 08:22:54;;;;;;;1.80;1.33;;;18.20;96.50;;;;;;5076227;28;20636;-88
2022/05/29 08:30:53;;;;;;;3.07;2.17;;;18.00;92.20;;;;;;5076602;28;20640;-89
2022/05/29 08:33:23;;;;;;;3.23;1.30;;;17.70;91.30;;;;;;5073170;28;20632;-88
2022/05/29 08:35:54;;;;;;;1.30;1.20;;;17.60;97.30;;;;;;5075737;28;20628;-88
2022/05/29 08:38:21;;;;;;;2.40;1.47;;;17.70;98.70;;;;;;5070681;28;21004;-88
2022/05/29 08:40:51;;;;;;;3.33;2.30;;;17.80;94.30;;;;;;5073021;28;21010;-88
2022/05/29 08:43:25;;;;;;;5.67;2.07;;;17.90;94.80;;;;;;5073979;28;21214;-89
2022/05/29 08:45:52;;;;;;;1.80;1.70;;;18.10;95.80;;;;;;5077709;28;20661;-88
2022/05/29 08:48:21;;;;;;;5.53;1.73;;;18.20;95.90;;;;;;5071763;28;20629;-89
2022/05/29 08:51:09;;;;;;;6.77;2.27;;;18.10;93.30;;;;;;5072139;28;20687;-89
2022/05/29 08:53:50;;;;;;;4.17;1.50;;;18.00;92.70;;;;;;5070314;28;21182;-88
2022/05/29 08:56:22;;;;;;;3.23;1.93;;;17.60;96.00;;;;;;5070570;28;20621;-88
2022/05/29 08:59:07;;;;;;;4.27;2.47;;;17.60;93.30;;;;;;5078097;28;20640;-89
2022/05/29 09:01:48;;;;;;;3.10;1.90;;;17.40;93.20;;;;;;5068941;28;20656;-88
2022/05/29 09:04:26;;;;;;;3.97;1.73;;;17.30;93.30;;;;;;5082935;28;20628;-89
2022/05/29 09:06:57;;;;;;;3.47;1.80;;;17.20;94.20;;;;;;5076421;28;20755;-88
2022/05/29 09:09:32;;;;;;;4.23;1.53;;;17.10;92.90;;;;;;5076261;28;20624;-88
2022/05/29 09:12:04;;;;;;;4.50;2.37;;;17.20;93.10;;;;;;5082250;28;21179;-88
2022/05/29 09:14:47;;;;;;;2.83;1.70;;;17.20;92.80;;;;;;5078098;28;20629;-89
2022/05/29 09:17:22;;;;;;;2.90;1.70;;;16.80;92.80;;;;;;5074299;28;20621;-89
2022/05/29 09:19:53;;;;;;;2.90;1.67;;;16.70;92.30;;;;;;5079019;28;20659;-88
2022/05/29 09:22:24;;;;;;;3.93;1.70;;;16.80;94.80;;;;;;5075828;28;20616;-88
2022/05/29 09:25:01;;;;;;;3.50;2.00;;;17.10;93.20;;;;;;5079073;28;20632;-89
2022/05/29 09:27:29;;;;;;;6.07;2.20;;;16.70;92.60;;;;;;5079420;28;20686;-89
2022/05/29 09:29:55;;;;;;;5.90;2.77;;;16.20;93.10;;;;;;5079444;28;20847;-88
2022/05/29 09:32:25;;;;;;;4.37;2.03;;;15.90;93.90;;;;;;5077462;28;20639;-89
2022/05/29 09:35:00;;;;;;;3.30;1.67;;;15.70;93.90;;;;;;5072516;28;21182;-89
2022/05/29 09:37:38;;;;;;;3.50;2.50;;;15.70;95.20;;;;;;5081922;28;20620;-89
2022/05/29 09:40:15;;;;;;;2.80;2.20;;;15.70;94.10;;;;;;5072406;28;20689;-89
2022/05/29 09:42:43;;;;;;;2.50;1.60;;;15.50;95.20;;;;;;5074626;28;20656;-88
2022/05/29 09:45:15;;;;;;;3.67;2.30;;;15.50;98.20;;;;;;5082561;28;20665;-88
2022/05/29 09:50:43;;;;;;;3.23;1.50;;;15.80;99.90;;;;;;5088226;28;20747;-88
2022/05/29 09:53:13;;;;;;;7.57;2.27;;;15.90;99.90;;;;;;5078785;28;20620;-89
2022/05/29 09:55:50;;;;;;;6.30;2.30;;;15.80;99.90;;;;;;5081519;28;20665;-88
2022/05/29 09:58:22;;;;;;;3.30;1.87;;;16.00;98.10;;;;;;5077309;28;20636;-88
2022/05/29 10:00:55;;;;;;;3.03;1.70;;;16.40;99.90;;;;;;5071045;28;20645;-89
2022/05/29 10:03:44;;;;;;;2.27;1.80;;;16.50;96.30;;;;;;5068111;28;21014;-90
2022/05/29 10:06:17;;;;;;;6.83;1.83;;;16.60;94.40;;;;;;5053827;28;20695;-89
2022/05/29 10:08:45;;;;;;;3.47;1.83;;;16.70;95.10;;;;;;5074934;28;20752;-88
2022/05/29 10:11:21;;;;;;;4.50;1.20;;;17.00;98.00;;;;;;5080904;28;20790;-88
2022/05/29 10:13:49;;;;;;;7.30;2.07;;;16.90;98.20;;;;;;5076936;28;20997;-87
2022/05/29 10:16:32;;;;;;;3.53;1.97;;;16.60;94.40;;;;;;5070844;28;20644;-88
2022/05/29 10:18:59;;;;;;;4.50;2.20;;;16.30;95.70;;;;;;5060417;28;20625;-90
2022/05/29 10:21:29;;;;;;;1.97;1.50;;;16.20;96.20;;;;;;5075499;28;20714;-88
2022/05/29 10:24:11;;;;;;;4.40;1.47;;;16.30;99.30;;;;;;5076192;28;20636;-89
2022/05/29 10:26:39;;;;;;;5.50;1.50;;;16.50;97.70;;;;;;5074596;28;20671;-89
2022/05/29 10:29:16;;;;;;;2.70;1.40;;;16.60;98.90;;;;;;5074253;28;20635;-88
2022/05/29 10:31:47;;;;;;;2.20;1.07;;;16.60;98.30;;;;;;5077992;28;20630;-89
2022/05/29 10:34:17;;;;;;;1.00;0.90;;;16.90;99.90;;;;;;5075946;28;20616;-89
2022/05/29 10:36:44;;;;;;;1.67;1.47;;;17.20;99.90;;;;;;5077719;28;20625;-89
2022/05/29 10:39:17;;;;;;;2.67;1.30;;;17.30;99.90;;;;;;5090407;28;20631;-89
2022/05/29 10:41:46;;;;;;;4.63;1.70;;;17.30;99.70;;;;;;5077004;28;20625;-89
2022/05/29 10:44:33;;;;;;;2.80;1.13;;;17.30;98.20;;;;;;5085406;28;20621;-89
2022/05/29 10:47:06;;;;;;;1.90;1.37;;;17.10;97.20;;;;;;5066814;28;20672;-89
2022/05/29 10:49:38;;;;;;;4.33;1.03;;;17.00;99.70;;;;;;5080546;28;20656;-89
2022/05/29 10:52:24;;;;;;;1.27;1.13;;;16.80;99.90;;;;;;5078120;28;21007;-90
2022/05/29 10:55:23;;;;;;;2.27;1.40;;;16.70;97.50;;;;;;5076371;28;20631;-89
2022/05/29 10:58:23;;;;;;;3.87;1.60;;;16.50;99.90;;;;;;5080679;28;20623;-91
2022/05/29 11:00:59;;;;;;;2.70;1.40;;;16.30;99.90;;;;;;5069088;28;20664;-90
2022/05/29 11:03:56;;;;;;;4.67;1.87;;;16.30;99.90;;;;;;5073389;28;20969;-88
2022/05/29 11:06:48;;;;;;;4.70;1.70;;;16.10;99.90;;;;;;5072935;28;20665;-89
2022/05/29 11:09:52;;;;;;;1.53;1.43;;;15.90;99.90;;;;;;5071176;28;20633;-90
2022/05/29 11:12:38;;;;;;;2.90;1.60;;;15.80;99.90;;;;;;5078211;28;20624;-90
2022/05/29 11:15:15;;;;;;;2.13;1.40;;;15.50;99.90;;;;;;5070632;28;20667;-88
2022/05/29 11:17:51;;;;;;;1.57;1.10;;;15.30;99.90;;;;;;5073389;28;20638;-89
2022/05/29 11:20:46;;;;;;;3.40;1.33;;;15.30;99.90;;;;;;5075613;28;20653;-88
2022/05/29 11:23:26;;;;;;;2.23;1.47;;;15.20;99.90;;;;;;5070314;28;20616;-87
2022/05/29 11:26:00;;;;;;;2.63;1.20;;;14.90;99.90;;;;;;5078271;28;20652;-90
2022/05/29 11:28:53;;;;;;;5.00;1.50;;;14.90;99.90;;;;;;5070659;28;20582;-89
2022/05/29 11:31:35;;;;;;;1.97;1.67;;;14.80;99.90;;;;;;5075253;28;20668;-88
2022/05/29 11:34:18;;;;;;;4.63;2.17;;;14.60;99.90;;;;;;5077155;28;20647;-90
2022/05/29 11:37:05;;;;;;;2.07;1.20;;;14.50;99.90;;;;;;5077812;28;20916;-89
2022/05/29 11:39:37;;;;;;;5.90;1.87;;;14.70;99.90;;;;;;5075367;28;20666;-89
2022/05/29 11:42:11;;;;;;;4.17;1.80;;;14.70;99.90;;;;;;5076542;28;20658;-88
2022/05/29 11:44:44;;;;;;;2.23;1.43;;;14.80;99.90;;;;;;5079880;28;20639;-88
2022/05/29 11:53:01;;;;;;;1.53;1.20;;;16.20;99.90;;;;;;5065185;28;20664;-88
2022/05/29 11:55:33;;;;;;;2.83;1.40;;;16.90;99.90;;;;;;5070230;28;20741;-88
2022/05/29 11:58:04;;;;;;;1.33;1.00;;;17.30;99.90;;;;;;5066049;28;20644;-88
2022/05/29 12:00:37;;;;;;;2.00;1.10;;;18.00;99.90;;;;;;5073164;28;20678;-88
2022/05/29 12:03:22;;;;;;;1.10;1.00;;;18.50;99.90;;;;;;5072163;28;20620;-89
2022/05/29 12:05:53;;;;;;;2.50;1.13;;;18.80;99.90;;;;;;5073895;28;20706;-90
2022/05/29 12:08:28;;;;;;;1.43;0.90;;;19.10;99.90;;;;;;5067972;28;20639;-78
2022/05/29 12:11:06;;;;;;;7.40;1.10;;;19.40;99.90;;;;;;5072031;28;20659;-78
2022/05/29 12:13:37;;;;;;;1.40;0.87;;;19.40;99.90;;;;;;5067000;28;20630;-78
2022/05/29 12:16:08;;;;;;;3.07;1.23;;;19.60;99.90;;;;;;5069070;28;20604;-78
2022/05/29 12:18:44;;;;;;;1.37;0.97;;;19.90;99.90;;;;;;5073417;28;21182;-78
2022/05/29 12:21:14;;;;;;;4.47;1.10;;;20.30;99.90;;;;;;5069672;28;20679;-78
2022/05/29 12:23:44;;;;;;;2.50;0.90;;;20.80;99.40;;;;;;5073181;28;20646;-77
2022/05/29 12:26:16;;;;;;;1.97;0.90;;;21.10;98.30;;;;;;5073682;28;20668;-77
2022/05/29 12:28:50;;;;;;;1.20;0.80;;;21.40;96.90;;;;;;5071771;28;20628;-77
2022/05/29 12:31:21;;;;;;;3.00;0.70;;;21.80;97.00;;;;;;5074814;28;20657;-77
2022/05/29 12:33:49;;;;;;;2.20;0.80;;;22.10;95.50;;;;;;5072863;28;20629;-79
2022/05/29 12:36:30;;;;;;;2.17;0.80;;;22.40;95.20;;;;;;5073616;28;20631;-79
2022/05/29 12:39:06;;;;;;;1.13;0.73;;;22.10;93.50;;;;;;5071025;28;20624;-79
2022/05/29 12:42:08;;;;;;;5.33;1.20;;;22.50;94.40;;;;;;5068861;28;20648;-80
2022/05/29 12:45:12;;;;;;;3.23;0.70;;;22.70;93.90;;;;;;5054920;28;20641;-79
2022/05/29 12:48:15;;;;;;;1.77;0.80;;;23.00;93.80;;;;;;5066631;28;20679;-78
2022/05/29 12:50:55;;;;;;;3.63;1.50;;;23.40;93.80;;;;;;5072448;28;20659;-78
2022/05/29 12:53:53;;;;;;;5.47;1.60;;;23.50;92.70;;;;;;5069428;28;20761;-78
2022/05/29 12:56:44;;;;;;;1.47;0.80;;;22.90;90.70;;;;;;5071308;28;20633;-78
2022/05/29 12:59:29;;;;;;;1.10;1.00;;;22.80;91.80;;;;;;5073718;28;20658;-78
2022/05/29 13:02:15;;;;;;;2.40;1.03;;;22.70;91.50;;;;;;5073689;28;20624;-77
2022/05/29 13:05:17;;;;;;;2.57;1.03;;;22.60;91.30;;;;;;5075988;28;20632;-78
2022/05/29 13:08:17;;;;;;;2.93;1.33;;;22.50;91.50;;;;;;5068599;28;20664;-77
2022/05/29 13:10:48;;;;;;;2.37;1.27;;;22.80;91.30;;;;;;5067424;28;20681;-78
2022/05/29 13:13:20;;;;;;;3.17;1.30;;;22.60;86.30;;;;;;5071094;28;20625;-78
2022/05/29 13:15:48;;;;;;;2.67;1.20;;;21.70;87.10;;;;;;5068761;28;20653;-78
2022/05/29 13:18:21;;;;;;;2.60;0.97;;;21.70;88.90;;;;;;5071133;28;20613;-78
2022/05/29 13:21:14;;;;;;;1.93;1.17;;;22.20;87.80;;;;;;5068455;28;20701;-79
2022/05/29 13:23:45;;;;;;;1.90;1.10;;;21.90;83.00;;;;;;5067466;28;20629;-79
2022/05/29 13:26:20;;;;;;;1.37;0.80;;;22.00;85.70;;;;;;5074380;28;20640;-91
2022/05/29 13:29:01;;;;;;;1.80;0.90;;;22.50;86.00;;;;;;5073894;28;20644;-89
2022/05/29 13:31:32;;;;;;;1.77;1.07;;;23.50;82.00;;;;;;5066609;28;21054;-88
2022/05/29 13:34:27;;;;;;;2.50;1.00;;;23.90;82.20;;;;;;5070804;28;20629;-89
2022/05/29 13:37:01;;;;;;;1.70;1.03;;;24.50;77.70;;;;;;5063974;28;20672;-88
2022/05/29 13:39:36;;;;;;;1.80;1.10;;;24.70;77.70;;;;;;5073705;28;20616;-89
2022/05/29 13:42:06;;;;;;;2.47;0.90;;;25.20;77.10;;;;;;5072568;28;20624;-89
2022/05/29 13:44:35;;;;;;;2.30;1.30;;;25.50;70.70;;;;;;5071949;28;20620;-89
2022/05/29 13:47:46;;;;;;;2.40;1.10;;;25.20;69.50;;;;;;5071886;28;20668;-89